createdAt,value
2022-10-08T00:02:20.409Z,101200.28
2022-10-08T00:04:51.084Z,101199.63
2022-10-08T00:07:21.790Z,101210.88
2022-10-08T00:09:52.618Z,101207.38
2022-10-08T00:12:23.153Z,101212.56
2022-10-08T00:14:54.029Z,101218.84
2022-10-08T00:17:25.226Z,101220.91
2022-10-08T00:19:56.454Z,101225.91
2022-10-08T00:22:27.811Z,101240.50
2022-10-08T00:27:44.530Z,101265.44
2022-10-08T00:30:15.320Z,101263.84
2022-10-08T00:32:48.082Z,101275.75
2022-10-08T00:35:18.755Z,101286.66
2022-10-08T00:37:48.918Z,101281.88
2022-10-08T00:43:05.475Z,101279.06
2022-10-08T00:51:13.843Z,101282.47
2022-10-08T00:53:46.175Z,101281.94
2022-10-08T00:56:16.780Z,101279.13
2022-10-08T00:58:48.254Z,101269.53
2022-10-08T01:01:19.909Z,101262.41
2022-10-08T01:03:50.810Z,101251.66
2022-10-08T01:06:20.993Z,101248.56
2022-10-08T01:09:06.946Z,101248.31
2022-10-08T01:11:56.055Z,101253.47
2022-10-08T01:14:50.028Z,101268.34
2022-10-08T01:17:31.342Z,101265.84
2022-10-08T01:23:37.639Z,101293.28
2022-10-08T01:26:28.687Z,101289.56
2022-10-08T01:29:17.306Z,101293.13
2022-10-08T01:32:14.233Z,101298.75
2022-10-08T01:34:50.786Z,101307.25
2022-10-08T01:37:31.846Z,101301.38
2022-10-08T01:40:05.964Z,101310.53
2022-10-08T01:45:34.612Z,101314.50
2022-10-08T01:51:05.449Z,101323.25
2022-10-08T01:53:41.973Z,101331.69
2022-10-08T01:56:14.837Z,101339.81
2022-10-08T01:58:53.584Z,101332.66
2022-10-08T02:04:36.362Z,101344.69
2022-10-08T02:07:15.157Z,101347.97
2022-10-08T02:09:48.500Z,101347.75
2022-10-08T02:15:07.748Z,101346.63
2022-10-08T02:17:59.424Z,101353.19
2022-10-08T02:20:29.196Z,101350.13
2022-10-08T02:23:06.687Z,101355.88
2022-10-08T02:25:48.714Z,101360.63
2022-10-08T02:28:52.697Z,101363.38
2022-10-08T02:31:34.574Z,101374.03
2022-10-08T02:34:23.141Z,101373.44
2022-10-08T02:37:25.161Z,101369.88
2022-10-08T02:39:59.156Z,101366.06
2022-10-08T02:42:31.856Z,101363.31
2022-10-08T02:50:52.003Z,101364.06
2022-10-08T02:53:24.009Z,101366.78
2022-10-08T02:56:18.467Z,101363.66
2022-10-08T02:58:49.838Z,101360.16
2022-10-08T03:01:20.334Z,101367.53
2022-10-08T03:03:57.257Z,101371.38
2022-10-08T03:06:30.770Z,101377.06
2022-10-08T03:09:03.555Z,101372.66
2022-10-08T03:11:34.944Z,101369.00
2022-10-08T03:14:08.817Z,101357.69
2022-10-08T03:16:43.715Z,101361.81
2022-10-08T03:19:17.580Z,101358.16
2022-10-08T03:22:06.453Z,101351.75
2022-10-08T03:24:37.989Z,101360.84
2022-10-08T04:09:03.702Z,101323.03
2022-10-08T04:14:19.716Z,101315.13
2022-10-08T04:16:51.223Z,101316.97
2022-10-08T04:19:21.652Z,101312.50
2022-10-08T04:21:51.795Z,101314.59
2022-10-08T04:24:21.841Z,101314.59
2022-10-08T04:26:52.495Z,101312.88
2022-10-08T04:29:22.820Z,101302.91
2022-10-08T04:31:55.189Z,101299.53
2022-10-08T04:34:25.407Z,101286.25
2022-10-08T04:36:55.271Z,101289.84
2022-10-08T04:42:10.589Z,101280.16
2022-10-08T04:44:40.556Z,101278.72
2022-10-08T04:49:57.853Z,101270.97
2022-10-08T04:52:28.752Z,101266.28
2022-10-08T04:57:46.907Z,101259.94
2022-10-08T05:00:18.722Z,101247.81
2022-10-08T05:02:49.543Z,101242.59
2022-10-08T05:10:51.943Z,101218.31
2022-10-08T05:13:21.701Z,101219.13
2022-10-08T05:15:52.079Z,101230.13
2022-10-08T05:21:10.544Z,101207.78
2022-10-08T05:26:57.975Z,101200.34
2022-10-08T05:29:21.948Z,101201.13
2022-10-08T05:31:52.743Z,101189.00
2022-10-08T05:34:23.207Z,101185.44
2022-10-08T05:36:54.157Z,101174.09
2022-10-08T05:42:10.135Z,101158.06
2022-10-08T05:44:43.497Z,101162.16
2022-10-08T05:47:16.033Z,101162.16
2022-10-08T05:49:46.237Z,101150.81
2022-10-08T05:52:16.239Z,101148.06
2022-10-08T05:54:47.871Z,101135.91
2022-10-08T05:57:18.265Z,101131.00
2022-10-08T05:59:48.328Z,101133.16
2022-10-08T06:02:18.970Z,101127.53
2022-10-08T06:04:51.748Z,101117.63
2022-10-08T06:07:22.547Z,101108.59
2022-10-08T06:09:54.487Z,101109.44
2022-10-08T06:12:24.642Z,101109.44
2022-10-08T06:14:54.652Z,101101.16
2022-10-08T06:17:24.803Z,101087.38
2022-10-08T06:19:54.762Z,101080.81
2022-10-08T06:22:25.883Z,101074.84
2022-10-08T06:27:42.034Z,101066.31
2022-10-08T06:30:12.804Z,101054.25
2022-10-08T06:32:43.449Z,101044.34
2022-10-08T06:35:13.630Z,101035.38
2022-10-08T06:37:44.546Z,101031.75
2022-10-08T06:40:15.058Z,101023.47
2022-10-08T06:42:45.457Z,101021.63
2022-10-08T06:45:16.023Z,101013.50
2022-10-08T06:47:46.734Z,101005.41
2022-10-08T06:53:05.799Z,100995.25
2022-10-08T06:55:38.238Z,100986.00
2022-10-08T06:58:09.061Z,100971.06
2022-10-08T07:00:39.357Z,100978.03
2022-10-08T07:03:10.410Z,100967.97
2022-10-08T07:05:40.522Z,100963.59
2022-10-08T07:08:10.846Z,100960.19
2022-10-08T07:13:27.134Z,100942.81
2022-10-08T07:16:03.786Z,100936.16
2022-10-08T07:18:35.411Z,100934.69
2022-10-08T07:21:07.394Z,100936.66
2022-10-08T07:23:38.155Z,100928.09
2022-10-08T07:26:14.034Z,100927.13
2022-10-08T07:28:46.899Z,100912.16
2022-10-08T07:31:20.650Z,100901.25
2022-10-08T07:33:51.697Z,100898.50
2022-10-08T07:36:24.186Z,100892.97
2022-10-08T07:41:57.714Z,100876.91
2022-10-08T07:47:13.604Z,100866.66
2022-10-08T07:49:43.832Z,100865.31
2022-10-08T07:52:14.681Z,100861.47
2022-10-08T07:54:47.422Z,100847.00
2022-10-08T07:57:18.239Z,100842.94
2022-10-08T07:59:51.021Z,100833.66
2022-10-08T08:02:21.142Z,100829.78
2022-10-08T08:04:51.220Z,100824.91
2022-10-08T08:07:22.128Z,100825.06
2022-10-08T08:09:52.309Z,100819.38
2022-10-08T08:12:22.901Z,100803.31
2022-10-08T08:14:53.236Z,100801.66
2022-10-08T08:17:23.684Z,100803.94
2022-10-08T08:20:13.106Z,100794.19
2022-10-08T08:22:43.381Z,100793.53
2022-10-08T08:25:31.491Z,100785.75
2022-10-08T08:28:02.173Z,100783.13
2022-10-08T08:33:18.299Z,100777.13
2022-10-08T08:35:55.457Z,100770.31
2022-10-08T08:38:25.614Z,100765.91
2022-10-08T08:40:59.348Z,100768.38
2022-10-08T08:43:29.676Z,100772.09
2022-10-08T08:46:00.701Z,100767.38
2022-10-08T08:48:35.734Z,100776.16
2022-10-08T08:51:06.508Z,100776.97
2022-10-08T08:53:36.774Z,100779.44
2022-10-08T08:56:10.410Z,100787.22
2022-10-08T08:58:45.378Z,100792.75
2022-10-08T09:01:38.647Z,100791.13
2022-10-08T09:07:25.137Z,100783.97
2022-10-08T09:09:58.513Z,100780.72
2022-10-08T09:12:46.653Z,100780.38
2022-10-08T09:15:26.605Z,100790.47
2022-10-08T09:20:44.221Z,100789.00
2022-10-08T09:23:23.939Z,100788.34
2022-10-08T09:26:25.639Z,100784.09
2022-10-08T09:31:48.305Z,100795.97
2022-10-08T09:34:22.296Z,100803.13
2022-10-08T09:37:08.239Z,100807.00
2022-10-08T09:45:33.319Z,100820.97
2022-10-08T09:51:20.022Z,100822.44
2022-10-08T09:53:55.481Z,100816.72
2022-10-08T09:56:33.743Z,100815.31
2022-10-08T09:59:07.299Z,100821.97
2022-10-08T10:01:39.417Z,100805.88
2022-10-08T10:04:21.075Z,100806.53
2022-10-08T10:06:58.287Z,100816.09
2022-10-08T10:09:41.040Z,100820.81
2022-10-08T10:12:38.688Z,100819.34
2022-10-08T10:15:19.168Z,100820.19
2022-10-08T10:18:07.995Z,100816.91
2022-10-08T10:23:43.783Z,100830.34
2022-10-08T10:26:28.318Z,100850.63
2022-10-08T10:29:03.490Z,100859.41
2022-10-08T10:31:43.694Z,100857.44
2022-10-08T10:34:20.931Z,100861.66
2022-10-08T10:37:00.301Z,100875.16
2022-10-08T10:39:38.201Z,100883.59
2022-10-08T10:42:39.948Z,100871.44
2022-10-08T10:45:30.935Z,100898.41
2022-10-08T10:48:01.662Z,100903.28
2022-10-08T10:51:07.433Z,100907.72
2022-10-08T10:54:07.246Z,100914.84
2022-10-08T10:56:45.172Z,100923.13
2022-10-08T10:59:35.530Z,100916.50
2022-10-08T11:02:19.004Z,100929.97
2022-10-08T11:05:12.790Z,100928.19
2022-10-08T11:07:54.281Z,100922.19
2022-10-08T11:13:47.514Z,100931.88
2022-10-08T11:22:56.439Z,100953.09
2022-10-08T11:25:55.730Z,100965.78
2022-10-08T11:28:36.889Z,100975.19
2022-10-08T11:31:16.847Z,100978.63
2022-10-08T11:33:48.521Z,100985.41
2022-10-08T11:39:45.537Z,100995.19
2022-10-08T11:42:40.264Z,100999.25
2022-10-08T11:45:28.630Z,101015.94
2022-10-08T11:50:47.779Z,101031.03
2022-10-08T11:53:25.359Z,101022.69
2022-10-08T11:56:02.079Z,101030.63
2022-10-08T11:58:35.918Z,101030.94
2022-10-08T12:01:11.963Z,101041.84
2022-10-08T12:06:38.746Z,101055.66
2022-10-08T12:09:11.300Z,101059.72
2022-10-08T12:14:27.761Z,101075.69
2022-10-08T12:20:03.944Z,101083.16
2022-10-08T12:28:24.665Z,101101.22
2022-10-08T12:31:04.361Z,101111.41
2022-10-08T12:33:35.300Z,101115.25
2022-10-08T12:36:22.033Z,101128.34
2022-10-08T12:39:09.394Z,101129.50
2022-10-08T12:42:17.000Z,101134.28
2022-10-08T12:45:06.606Z,101147.03
2022-10-08T12:50:58.310Z,101162.94
2022-10-08T12:56:21.884Z,101164.56
2022-10-08T12:58:53.801Z,101170.47
2022-10-08T13:01:26.214Z,101180.00
2022-10-08T13:04:22.979Z,101178.69
2022-10-08T13:06:56.715Z,101192.06
2022-10-08T13:09:30.592Z,101188.97
2022-10-08T13:14:49.468Z,101194.75
2022-10-08T13:17:38.081Z,101195.97
2022-10-08T13:22:59.357Z,101201.91
2022-10-08T13:28:59.220Z,101196.56
2022-10-08T13:31:27.166Z,101208.81
2022-10-08T13:33:57.979Z,101205.56
2022-10-08T13:36:28.758Z,101209.25
2022-10-08T13:41:53.546Z,101212.97
2022-10-08T13:44:24.508Z,101222.06
2022-10-08T13:46:57.205Z,101228.09
2022-10-08T13:49:32.217Z,101231.19
2022-10-08T13:52:05.136Z,101235.50
2022-10-08T13:54:41.524Z,101229.66
2022-10-08T13:57:13.104Z,101223.75
2022-10-08T14:05:15.690Z,101234.06
2022-10-08T14:07:48.683Z,101242.34
2022-10-08T14:10:21.726Z,101237.34
2022-10-08T14:12:52.596Z,101255.53
2022-10-08T14:15:23.581Z,101266.38
2022-10-08T14:17:56.172Z,101275.28
2022-10-08T14:26:02.286Z,101270.66
2022-10-08T14:31:18.320Z,101259.94
2022-10-08T14:33:49.321Z,101260.75
2022-10-08T14:36:22.855Z,101258.50
2022-10-08T14:41:39.747Z,101264.63
2022-10-08T14:46:56.297Z,101266.28
2022-10-08T14:49:27.063Z,101262.72
2022-10-08T14:51:57.654Z,101269.03
2022-10-08T14:54:28.664Z,101272.09
2022-10-08T14:56:59.515Z,101278.75
2022-10-08T14:59:30.361Z,101278.25
2022-10-08T15:02:01.467Z,101282.63
2022-10-08T15:10:04.278Z,101286.81
2022-10-08T15:12:35.150Z,101290.09
2022-10-08T15:17:51.677Z,101304.41
2022-10-08T15:20:22.339Z,101307.69
2022-10-08T15:25:38.698Z,101308.28
2022-10-08T15:28:09.454Z,101311.88
2022-10-08T15:30:40.232Z,101309.94
2022-10-08T15:33:10.929Z,101305.53
2022-10-08T15:38:27.070Z,101309.22
2022-10-08T15:41:05.096Z,101310.44
2022-10-08T15:46:23.904Z,101307.28
2022-10-08T15:57:16.816Z,101300.47
2022-10-08T15:59:48.017Z,101303.28
2022-10-08T16:02:18.882Z,101295.44
2022-10-08T16:04:50.966Z,101298.22
2022-10-08T16:07:22.322Z,101294.09
2022-10-08T16:14:24.787Z,101287.22
2022-10-08T16:16:56.602Z,101284.28
2022-10-08T16:19:29.250Z,101289.28
2022-10-08T16:22:01.661Z,101283.75
2022-10-08T16:24:32.745Z,101289.56
2022-10-08T16:27:03.581Z,101290.69
2022-10-08T16:29:34.418Z,101292.97
2022-10-08T16:32:05.236Z,101281.63
2022-10-08T16:34:35.969Z,101288.25
2022-10-08T16:37:07.778Z,101268.75
2022-10-08T16:39:38.525Z,101266.78
2022-10-08T16:42:09.514Z,101258.00
2022-10-08T16:47:25.934Z,101249.53
2022-10-08T16:49:57.991Z,101247.06
2022-10-08T16:52:28.711Z,101241.84
2022-10-08T16:54:59.483Z,101236.97
2022-10-08T16:57:31.131Z,101233.06
2022-10-08T17:00:02.792Z,101228.19
2022-10-08T17:02:33.857Z,101230.94
2022-10-08T17:05:04.702Z,101231.53
2022-10-08T17:07:35.717Z,101225.00
2022-10-08T17:10:06.619Z,101221.44
2022-10-08T17:15:23.126Z,101205.16
2022-10-08T17:23:25.516Z,101191.69
2022-10-08T17:25:59.610Z,101187.50
2022-10-08T17:28:33.187Z,101181.47
2022-10-08T17:31:05.636Z,101167.47
2022-10-08T17:36:25.405Z,101167.47
2022-10-08T17:38:59.204Z,101173.19
2022-10-08T17:44:17.031Z,101166.03
2022-10-08T17:46:50.079Z,101165.84
2022-10-08T17:52:08.687Z,101163.91
2022-10-08T17:57:25.212Z,101160.63
2022-10-08T18:08:12.546Z,101133.34
2022-10-08T18:10:43.274Z,101143.25
2022-10-08T18:13:14.021Z,101135.81
2022-10-08T18:15:44.947Z,101128.84
2022-10-08T18:18:16.018Z,101130.28
2022-10-08T18:20:56.756Z,101125.06
2022-10-08T18:23:27.731Z,101126.41
2022-10-08T18:28:59.758Z,101115.16
2022-10-08T18:31:34.127Z,101109.97
2022-10-08T18:34:07.732Z,101120.38
2022-10-08T18:36:41.063Z,101118.75
2022-10-08T18:39:17.315Z,101118.22
2022-10-08T18:41:50.784Z,101118.84
2022-10-08T18:44:27.221Z,101117.22
2022-10-08T18:47:00.680Z,101112.22
2022-10-08T18:49:36.422Z,101102.81
2022-10-08T18:52:07.291Z,101097.91
2022-10-08T18:57:23.854Z,101093.50
2022-10-08T18:59:54.673Z,101080.22
2022-10-08T19:05:11.225Z,101077.97
2022-10-08T19:07:42.034Z,101077.97
2022-10-08T19:10:14.007Z,101074.91
2022-10-08T19:12:45.125Z,101072.16
2022-10-08T19:15:16.522Z,101059.50
2022-10-08T19:20:33.158Z,101077.66
2022-10-08T19:23:04.337Z,101088.41
2022-10-08T19:25:36.336Z,101083.69
2022-10-08T19:28:08.474Z,101104.97
2022-10-08T19:30:39.214Z,101102.19
2022-10-08T19:33:09.854Z,101115.16
2022-10-08T19:35:44.406Z,101120.47
2022-10-08T19:38:15.150Z,101104.75
2022-10-08T19:40:45.980Z,101108.31
2022-10-08T19:43:16.718Z,101108.31
2022-10-08T19:48:34.311Z,101112.53
2022-10-08T19:51:13.336Z,101115.28
2022-10-08T19:53:44.218Z,101116.09
2022-10-08T19:56:16.810Z,101117.22
2022-10-08T19:58:48.949Z,101116.09
2022-10-08T20:04:16.659Z,101121.59
2022-10-08T20:09:33.582Z,101114.97
2022-10-08T20:14:51.626Z,101108.84
2022-10-08T20:17:22.462Z,101101.19
2022-10-08T20:20:01.517Z,101102.19
2022-10-08T20:22:40.248Z,101103.13
2022-10-08T20:25:11.230Z,101107.53
2022-10-08T20:27:41.996Z,101103.13
2022-10-08T20:30:14.589Z,101104.53
2022-10-08T20:32:45.710Z,101100.66
2022-10-08T20:35:16.280Z,101102.63
2022-10-08T20:37:47.088Z,101108.13
2022-10-08T20:40:17.866Z,101104.53
2022-10-08T20:48:21.652Z,101100.16
2022-10-08T20:50:52.281Z,101102.09
2022-10-08T20:53:23.155Z,101096.59
2022-10-08T20:55:53.878Z,101094.34
2022-10-08T20:58:25.023Z,101087.19
2022-10-08T21:00:57.530Z,101086.34
2022-10-08T21:03:28.630Z,101083.31
2022-10-08T21:05:59.686Z,101089.13
2022-10-08T21:08:30.818Z,101082.47
2022-10-08T21:11:07.160Z,101079.22
2022-10-08T21:13:39.421Z,101075.31
2022-10-08T21:16:13.533Z,101080.84
2022-10-08T21:21:31.876Z,101068.19
2022-10-08T21:26:49.236Z,101070.47
2022-10-08T21:32:05.720Z,101072.09
2022-10-08T21:34:36.540Z,101070.13
2022-10-08T21:37:10.384Z,101073.22
2022-10-08T21:45:15.140Z,101078.72
2022-10-08T21:47:45.891Z,101064.09
2022-10-08T21:50:16.714Z,101069.63
2022-10-08T21:52:47.775Z,101073.22
2022-10-08T21:55:19.003Z,101074.34
2022-10-08T21:57:49.802Z,101073.47
2022-10-08T22:00:20.691Z,101072.16
2022-10-08T22:02:51.762Z,101071.84
2022-10-08T22:05:25.489Z,101071.84
2022-10-08T22:08:00.030Z,101069.09
2022-10-08T22:10:30.820Z,101075.13
2022-10-08T22:13:02.035Z,101068.28
2022-10-08T22:18:18.382Z,101084.81
2022-10-08T22:20:51.295Z,101077.69
2022-10-08T22:26:12.462Z,101075.72
2022-10-08T22:28:44.007Z,101082.06
2022-10-08T22:34:02.850Z,101074.91
2022-10-08T22:39:21.717Z,101069.22
2022-10-08T22:41:52.481Z,101073.91
2022-10-08T22:44:23.307Z,101071.97
2022-10-08T22:46:54.168Z,101071.97
2022-10-08T22:49:25.144Z,101073.91
2022-10-08T22:51:56.219Z,101066.75
2022-10-08T22:54:27.133Z,101080.25
2022-10-08T23:02:28.872Z,101070.00
2022-10-08T23:04:59.487Z,101088.28
2022-10-08T23:07:30.856Z,101084.41
2022-10-08T23:10:01.127Z,101084.41
2022-10-08T23:12:33.789Z,101082.50
2022-10-08T23:15:04.581Z,101090.25
2022-10-08T23:17:35.442Z,101095.25
2022-10-08T23:20:06.955Z,101100.44
2022-10-08T23:22:37.819Z,101108.72
2022-10-08T23:27:54.727Z,101113.13
2022-10-08T23:30:42.229Z,101125.25
2022-10-08T23:35:59.800Z,101148.66
2022-10-08T23:41:17.753Z,101161.13
2022-10-08T23:43:50.364Z,101171.84
2022-10-08T23:46:25.525Z,101183.69
2022-10-08T23:51:42.650Z,101194.31
2022-10-08T23:54:13.703Z,101207.16
2022-10-08T23:56:44.408Z,101215.03
2022-10-08T23:59:15.549Z,101217.28
